Time;durP1;ratioP1;P1;durP2;ratioP2;P2;SDS_P1;SDS_P2;PMS_P1;PMS_P2;Temp;Humidity;BMP_temperature;BMP_pressure;BME280_temperature;BME280_humidity;BME280_pressure;Samples;Min_cycle;Max_cycle;Signal;HPM_P1;HPM_P2
2022/11/07 00:02:16;;;;;;;6.32;3.00;;;10.70;99.90;;;;;;4944832;28;20399;-41
2022/11/07 00:04:43;;;;;;;7.20;3.17;;;10.80;99.90;;;;;;4950227;28;20483;-41
2022/11/07 00:07:09;;;;;;;6.20;2.83;;;10.70;99.90;;;;;;4950014;28;20042;-41
2022/11/07 00:09:35;;;;;;;7.47;3.20;;;10.80;99.90;;;;;;4948335;29;20405;-40
2022/11/07 00:12:00;;;;;;;9.43;3.15;;;10.80;99.90;;;;;;4948475;28;20484;-40
2022/11/07 00:14:26;;;;;;;4.95;2.97;;;10.80;99.90;;;;;;4949135;28;20047;-41
2022/11/07 00:16:52;;;;;;;7.53;2.80;;;10.80;99.90;;;;;;4934736;29;20453;-41
2022/11/07 00:19:20;;;;;;;6.80;3.03;;;10.80;99.90;;;;;;4955137;28;20098;-41
2022/11/07 00:21:47;;;;;;;5.30;2.47;;;10.80;99.90;;;;;;4950308;28;20046;-42
2022/11/07 00:24:16;;;;;;;7.00;3.03;;;10.90;99.90;;;;;;4949407;28;20031;-41
2022/11/07 00:26:42;;;;;;;7.35;3.15;;;10.90;99.90;;;;;;4954140;28;20039;-41
2022/11/07 00:29:12;;;;;;;8.35;3.00;;;10.80;99.90;;;;;;4945048;28;20038;-40
2022/11/07 00:31:38;;;;;;;5.10;2.92;;;10.80;99.90;;;;;;4948524;28;20070;-41
2022/11/07 00:34:03;;;;;;;7.90;3.28;;;10.80;99.90;;;;;;4951308;28;20109;-42
2022/11/07 00:36:29;;;;;;;8.27;2.78;;;10.70;99.90;;;;;;4943577;28;20183;-41
2022/11/07 00:38:55;;;;;;;9.32;2.50;;;10.70;99.90;;;;;;4952492;29;20145;-41
2022/11/07 00:41:21;;;;;;;6.80;2.90;;;10.60;99.90;;;;;;4949104;28;20552;-42
2022/11/07 00:43:47;;;;;;;7.47;3.05;;;10.60;99.90;;;;;;4946997;28;20114;-40
2022/11/07 00:46:15;;;;;;;4.78;2.15;;;10.60;99.90;;;;;;4948685;28;20186;-41
2022/11/07 00:48:41;;;;;;;6.18;2.50;;;10.60;99.90;;;;;;4950040;28;20066;-39
2022/11/07 00:51:15;;;;;;;6.78;2.67;;;10.60;99.90;;;;;;4952773;28;20245;-42
2022/11/07 00:53:41;;;;;;;8.48;2.90;;;10.70;99.90;;;;;;4949967;28;20048;-42
2022/11/07 00:56:09;;;;;;;9.90;2.83;;;10.70;99.90;;;;;;4951934;28;20054;-40
2022/11/07 00:58:35;;;;;;;6.38;2.80;;;10.70;99.90;;;;;;4950603;28;20504;-44
2022/11/07 01:01:28;;;;;;;6.15;2.13;;;10.70;99.90;;;;;;4948256;29;20044;-42
2022/11/07 01:06:41;;;;;;;9.50;3.20;;;10.80;99.90;;;;;;4948231;29;20535;-41
2022/11/07 01:09:09;;;;;;;8.88;3.00;;;10.90;99.90;;;;;;4950327;28;20035;-40
2022/11/07 01:11:37;;;;;;;6.03;3.35;;;10.80;99.90;;;;;;4952168;28;20118;-40
2022/11/07 01:14:03;;;;;;;5.15;2.72;;;10.90;99.90;;;;;;4930997;29;20090;-40
2022/11/07 01:16:30;;;;;;;6.22;2.90;;;10.90;99.90;;;;;;4944789;28;20027;-41
2022/11/07 01:18:56;;;;;;;6.25;2.58;;;11.00;99.90;;;;;;4948733;28;20051;-41
2022/11/07 01:21:22;;;;;;;5.68;2.95;;;11.00;99.90;;;;;;4946800;28;20508;-39
2022/11/07 01:23:48;;;;;;;6.43;2.58;;;11.00;99.90;;;;;;4943800;29;20054;-42
2022/11/07 01:26:15;;;;;;;8.07;2.60;;;11.00;99.90;;;;;;4946826;28;20039;-41
2022/11/07 01:28:41;;;;;;;6.88;3.13;;;11.10;99.90;;;;;;4944615;29;20063;-42
2022/11/07 01:31:09;;;;;;;7.05;2.83;;;11.10;99.90;;;;;;4948553;28;20389;-42
2022/11/07 01:33:35;;;;;;;8.55;3.17;;;11.10;99.90;;;;;;4949890;29;20050;-40
2022/11/07 01:36:07;;;;;;;8.18;2.60;;;11.10;99.90;;;;;;4929699;28;20134;-42
2022/11/07 01:38:35;;;;;;;6.38;2.28;;;11.10;99.90;;;;;;4950182;28;20042;-40
2022/11/07 01:43:51;;;;;;;5.35;2.67;;;11.10;99.90;;;;;;4948466;28;20113;-40
2022/11/07 01:46:18;;;;;;;9.82;2.35;;;11.20;99.90;;;;;;4946095;28;20044;-40
2022/11/07 01:48:53;;;;;;;3.50;1.90;;;11.20;99.90;;;;;;4944353;28;20130;-42
2022/11/07 01:51:21;;;;;;;10.63;2.20;;;11.20;99.90;;;;;;4948842;28;20046;-42
2022/11/07 01:53:47;;;;;;;7.05;2.50;;;11.20;99.90;;;;;;4945371;28;20182;-40
2022/11/07 01:56:16;;;;;;;10.35;3.17;;;11.20;99.90;;;;;;4951007;28;20032;-41
2022/11/07 01:58:45;;;;;;;5.05;1.80;;;11.20;99.90;;;;;;4953110;28;20046;-42
2022/11/07 02:01:11;;;;;;;5.45;2.22;;;11.20;99.90;;;;;;4965643;28;20558;-40
2022/11/07 02:03:37;;;;;;;6.85;2.42;;;11.20;99.90;;;;;;4966840;28;20058;-41
2022/11/07 02:06:08;;;;;;;8.95;2.75;;;11.20;99.90;;;;;;4968427;28;20046;-40
2022/11/07 02:08:36;;;;;;;7.15;2.33;;;11.10;99.90;;;;;;4951281;28;20039;-41
2022/11/07 02:11:03;;;;;;;5.65;1.98;;;11.20;99.90;;;;;;4966556;28;20042;-41
2022/11/07 02:13:30;;;;;;;9.93;2.08;;;11.20;99.90;;;;;;4961495;28;20045;-42
2022/11/07 02:16:00;;;;;;;8.52;2.95;;;11.20;99.90;;;;;;4964469;28;20114;-40
2022/11/07 02:18:26;;;;;;;6.85;2.22;;;11.20;99.90;;;;;;4966514;28;20049;-41
2022/11/07 02:20:54;;;;;;;8.65;3.63;;;11.20;99.90;;;;;;4965470;28;20522;-40
2022/11/07 02:23:26;;;;;;;7.07;2.53;;;11.20;99.90;;;;;;4966924;28;20058;-42
2022/11/07 02:25:52;;;;;;;7.13;2.05;;;11.20;99.90;;;;;;4964288;28;20096;-41
2022/11/07 02:28:19;;;;;;;11.00;3.33;;;11.20;99.90;;;;;;4966254;28;20049;-41
2022/11/07 02:30:45;;;;;;;6.57;2.30;;;11.20;99.90;;;;;;4969221;28;20492;-40
2022/11/07 02:33:21;;;;;;;5.88;2.30;;;11.20;99.90;;;;;;4964053;28;20042;-40
2022/11/07 02:35:49;;;;;;;12.30;2.70;;;11.20;99.90;;;;;;4966923;28;20156;-40
2022/11/07 02:38:35;;;;;;;6.05;1.95;;;11.20;99.90;;;;;;4969776;28;20154;-41
2022/11/07 02:41:03;;;;;;;6.57;2.25;;;11.20;99.90;;;;;;4964419;28;20050;-40
2022/11/07 02:43:31;;;;;;;7.97;2.13;;;11.20;99.90;;;;;;4950000;28;20054;-42
2022/11/07 02:46:00;;;;;;;7.18;2.30;;;11.10;99.90;;;;;;4971292;28;20070;-42
2022/11/07 02:48:30;;;;;;;13.00;3.17;;;11.10;99.90;;;;;;4966883;28;20046;-41
2022/11/07 02:50:56;;;;;;;8.00;2.40;;;11.10;99.90;;;;;;4968786;28;20129;-41
2022/11/07 02:53:22;;;;;;;5.18;2.25;;;11.10;99.90;;;;;;4966668;28;20405;-41
2022/11/07 02:55:48;;;;;;;8.27;2.75;;;11.10;99.90;;;;;;4967765;28;20604;-40
2022/11/07 02:58:13;;;;;;;7.88;2.20;;;11.10;99.90;;;;;;4968504;28;20034;-40
2022/11/07 03:00:39;;;;;;;8.50;2.28;;;11.00;99.90;;;;;;4965838;28;20042;-41
2022/11/07 03:03:05;;;;;;;6.10;2.40;;;11.10;99.90;;;;;;4966028;28;20039;-41
2022/11/07 03:05:30;;;;;;;9.57;2.50;;;11.00;99.90;;;;;;4966153;28;20051;-42
2022/11/07 03:07:56;;;;;;;4.82;1.70;;;11.00;99.90;;;;;;4973620;28;20047;-39
2022/11/07 03:10:22;;;;;;;5.88;2.00;;;11.00;99.90;;;;;;4956521;28;20042;-39
2022/11/07 03:12:47;;;;;;;10.18;3.20;;;11.00;99.90;;;;;;4968021;28;20039;-40
2022/11/07 03:15:13;;;;;;;7.40;2.05;;;11.00;99.90;;;;;;4963402;28;20031;-40
2022/11/07 03:17:40;;;;;;;9.60;2.53;;;10.90;99.90;;;;;;4966864;28;20126;-40
2022/11/07 03:20:07;;;;;;;11.60;2.65;;;10.90;99.90;;;;;;4964450;28;20043;-42
2022/11/07 03:22:32;;;;;;;9.57;2.80;;;11.00;99.90;;;;;;4967157;28;20447;-40
2022/11/07 03:24:58;;;;;;;7.53;2.10;;;11.00;99.90;;;;;;4949501;28;20047;-40
2022/11/07 03:27:24;;;;;;;5.35;2.05;;;10.90;99.90;;;;;;4964660;28;20053;-41
2022/11/07 03:29:50;;;;;;;9.57;2.35;;;10.90;99.90;;;;;;4965549;28;20070;-41
2022/11/07 03:32:15;;;;;;;8.55;2.63;;;10.90;99.90;;;;;;4965405;28;20102;-42
2022/11/07 03:34:41;;;;;;;6.63;2.17;;;10.90;99.90;;;;;;4964875;28;20085;-40
2022/11/07 03:37:06;;;;;;;5.32;2.10;;;10.90;99.90;;;;;;4968175;28;20078;-41
2022/11/07 03:39:32;;;;;;;16.08;3.88;;;11.00;99.90;;;;;;4965580;28;20043;-40
2022/11/07 03:41:58;;;;;;;7.32;2.45;;;11.00;99.90;;;;;;4971520;28;20061;-40
2022/11/07 03:44:23;;;;;;;7.18;2.67;;;11.00;99.90;;;;;;4968286;28;20507;-39
2022/11/07 03:46:49;;;;;;;7.80;2.22;;;11.00;99.90;;;;;;4971914;28;20070;-39
2022/11/07 03:49:15;;;;;;;9.10;2.78;;;10.90;99.90;;;;;;4968394;28;20459;-41
2022/11/07 03:51:40;;;;;;;8.65;2.55;;;10.90;99.90;;;;;;4969155;28;20567;-44
2022/11/07 03:54:06;;;;;;;6.07;2.30;;;10.90;99.90;;;;;;4969973;28;20299;-43
2022/11/07 03:56:31;;;;;;;7.65;2.67;;;10.90;99.90;;;;;;4969686;28;21603;-40
2022/11/07 03:58:57;;;;;;;9.45;2.60;;;10.80;99.90;;;;;;4968452;28;20125;-40
2022/11/07 04:01:23;;;;;;;8.95;2.65;;;10.80;99.90;;;;;;4968781;28;20038;-42
2022/11/07 04:03:48;;;;;;;7.95;2.05;;;10.80;99.90;;;;;;4967823;28;20035;-40
2022/11/07 04:06:14;;;;;;;9.45;2.60;;;10.80;99.90;;;;;;4969150;28;20042;-41
2022/11/07 04:08:40;;;;;;;6.18;2.17;;;10.70;99.90;;;;;;4969970;28;20046;-41
2022/11/07 04:11:05;;;;;;;9.95;3.30;;;10.70;99.90;;;;;;4971841;28;20477;-40
2022/11/07 04:19:02;;;;;;;9.27;2.97;;;10.70;99.90;;;;;;4969009;28;20058;-39
2022/11/07 04:21:28;;;;;;;7.18;2.38;;;10.70;99.90;;;;;;4963970;28;20598;-41
2022/11/07 04:23:53;;;;;;;9.00;3.17;;;10.70;99.90;;;;;;4969085;28;20047;-43
2022/11/07 04:29:03;;;;;;;5.63;2.70;;;10.60;99.90;;;;;;4966738;28;20074;-40
2022/11/07 04:31:29;;;;;;;9.88;2.60;;;10.60;99.90;;;;;;4967753;28;20081;-40
2022/11/07 04:33:55;;;;;;;8.48;3.13;;;10.50;99.90;;;;;;4969105;28;20038;-40
2022/11/07 04:36:20;;;;;;;6.18;2.42;;;10.50;99.90;;;;;;4967978;28;20101;-40
2022/11/07 04:38:46;;;;;;;8.98;3.10;;;10.40;99.90;;;;;;4968529;28;20065;-40
2022/11/07 04:41:23;;;;;;;9.90;2.75;;;10.40;99.90;;;;;;4967590;28;21058;-40
2022/11/07 04:43:49;;;;;;;9.98;2.83;;;10.40;99.90;;;;;;4950844;28;20046;-40
2022/11/07 04:46:15;;;;;;;6.78;2.47;;;10.40;99.90;;;;;;4966642;28;20050;-40
2022/11/07 04:48:42;;;;;;;10.15;2.63;;;10.40;99.90;;;;;;4969007;28;20495;-40
2022/11/07 04:51:17;;;;;;;6.78;2.53;;;10.40;99.90;;;;;;4969062;28;20082;-41
2022/11/07 04:53:43;;;;;;;6.68;2.38;;;10.40;99.90;;;;;;4968736;28;20061;-41
2022/11/07 04:56:09;;;;;;;9.77;2.60;;;10.40;99.90;;;;;;4966396;28;20034;-39
2022/11/07 04:58:34;;;;;;;9.02;2.83;;;10.40;99.90;;;;;;4968326;28;20117;-39
2022/11/07 05:01:00;;;;;;;7.72;2.38;;;10.40;99.90;;;;;;4969448;28;20038;-42
2022/11/07 05:03:26;;;;;;;7.55;2.60;;;10.40;99.90;;;;;;4969228;28;20038;-39
2022/11/07 05:05:51;;;;;;;6.53;2.30;;;10.40;99.90;;;;;;4967974;28;20034;-47
2022/11/07 05:08:17;;;;;;;7.93;2.10;;;10.50;99.90;;;;;;4967447;28;20042;-40
2022/11/07 05:10:43;;;;;;;9.18;2.60;;;10.50;99.90;;;;;;4968738;28;20506;-41
2022/11/07 05:13:08;;;;;;;7.32;2.10;;;10.50;99.90;;;;;;4968128;28;20531;-42
2022/11/07 05:15:34;;;;;;;11.05;2.13;;;10.50;99.90;;;;;;4970430;28;20039;-40
2022/11/07 05:18:00;;;;;;;5.18;2.00;;;10.50;99.90;;;;;;4968639;28;20038;-41
2022/11/07 05:20:29;;;;;;;6.68;2.30;;;10.50;99.90;;;;;;4962110;28;20097;-41
2022/11/07 05:25:45;;;;;;;6.78;1.90;;;10.60;99.90;;;;;;4964444;28;20042;-42
2022/11/07 05:28:12;;;;;;;8.30;2.08;;;10.70;99.90;;;;;;4968736;28;20046;-43
2022/11/07 05:30:42;;;;;;;12.57;2.38;;;10.80;99.90;;;;;;4965257;28;20073;-41
2022/11/07 05:33:09;;;;;;;7.18;1.80;;;10.80;99.90;;;;;;4966732;28;20081;-39
2022/11/07 05:35:35;;;;;;;6.35;2.03;;;10.90;99.90;;;;;;4968089;28;20045;-42
2022/11/07 05:38:01;;;;;;;6.03;2.35;;;10.80;99.90;;;;;;4969019;28;20392;-40
2022/11/07 05:40:27;;;;;;;7.60;2.50;;;10.90;99.90;;;;;;4970779;28;20069;-40
2022/11/07 05:43:01;;;;;;;8.60;2.72;;;10.90;99.90;;;;;;4970701;28;20046;-41
2022/11/07 05:45:28;;;;;;;8.15;2.40;;;10.90;99.90;;;;;;4966707;28;20508;-40
2022/11/07 05:47:58;;;;;;;8.98;2.70;;;10.90;99.90;;;;;;4967632;28;20054;-40
2022/11/07 05:50:24;;;;;;;8.88;2.40;;;10.90;99.90;;;;;;4966462;28;20031;-41
2022/11/07 05:52:50;;;;;;;10.57;2.70;;;10.90;99.90;;;;;;4948439;28;20050;-40
2022/11/07 05:55:16;;;;;;;7.05;2.38;;;10.80;99.90;;;;;;4966497;28;20042;-42
2022/11/07 05:57:41;;;;;;;10.73;3.58;;;10.80;99.90;;;;;;4967241;28;20035;-41
2022/11/07 06:00:08;;;;;;;14.88;3.47;;;10.80;99.90;;;;;;4968078;28;20097;-41
2022/11/07 06:02:33;;;;;;;10.32;3.00;;;10.80;99.90;;;;;;4963009;28;20084;-42
2022/11/07 06:04:59;;;;;;;11.10;3.80;;;10.80;99.90;;;;;;4944063;28;20039;-41
2022/11/07 06:07:25;;;;;;;12.23;3.00;;;10.70;99.90;;;;;;4966797;28;20129;-41
2022/11/07 06:09:51;;;;;;;7.82;2.33;;;10.70;99.90;;;;;;4971420;28;20043;-40
2022/11/07 06:12:16;;;;;;;11.40;2.90;;;10.70;99.90;;;;;;4965510;28;20046;-39
2022/11/07 06:14:42;;;;;;;9.57;2.88;;;10.70;99.90;;;;;;4968829;28;20045;-39
2022/11/07 06:17:07;;;;;;;8.40;3.28;;;10.60;99.90;;;;;;4964643;28;20388;-39
2022/11/07 06:19:33;;;;;;;11.88;2.88;;;10.70;99.90;;;;;;4965768;28;20035;-39
2022/11/07 06:22:00;;;;;;;9.35;2.97;;;10.70;99.90;;;;;;4961934;28;20650;-41
2022/11/07 06:24:25;;;;;;;12.80;3.42;;;10.70;99.90;;;;;;4968465;28;20142;-40
2022/11/07 06:26:51;;;;;;;6.05;2.67;;;10.70;99.90;;;;;;4966967;28;20056;-41
2022/11/07 06:29:17;;;;;;;9.40;2.90;;;10.70;99.90;;;;;;4967372;28;20509;-40
2022/11/07 06:31:43;;;;;;;10.95;3.05;;;10.70;99.90;;;;;;4964131;28;20067;-41
2022/11/07 06:34:08;;;;;;;9.75;3.88;;;10.80;99.90;;;;;;4968050;28;20050;-39
2022/11/07 06:36:34;;;;;;;6.72;3.13;;;10.90;99.90;;;;;;4947220;28;20038;-40
2022/11/07 06:39:00;;;;;;;10.43;3.58;;;10.90;99.90;;;;;;4964261;28;20404;-39
2022/11/07 06:41:25;;;;;;;9.27;3.30;;;10.90;99.90;;;;;;4968719;28;20046;-41
2022/11/07 06:43:51;;;;;;;8.23;3.40;;;10.90;99.90;;;;;;4960810;28;20075;-40
2022/11/07 06:46:18;;;;;;;9.82;2.70;;;11.00;99.90;;;;;;4966877;28;20129;-42
2022/11/07 06:48:45;;;;;;;7.97;3.28;;;11.00;99.90;;;;;;4961802;28;20526;-41
2022/11/07 06:51:11;;;;;;;14.48;3.35;;;11.00;99.90;;;;;;4963195;28;20125;-40
2022/11/07 06:53:37;;;;;;;11.95;3.92;;;11.00;99.90;;;;;;4945573;28;20134;-40
2022/11/07 06:56:05;;;;;;;8.90;2.92;;;11.00;99.90;;;;;;4959271;28;20039;-39
2022/11/07 06:58:31;;;;;;;11.25;3.28;;;11.00;99.90;;;;;;4949073;28;20065;-40
2022/11/07 07:01:01;;;;;;;10.38;3.00;;;11.00;99.90;;;;;;4963187;28;20126;-39
2022/11/07 07:03:27;;;;;;;12.27;3.75;;;11.00;99.90;;;;;;4948885;28;20125;-42
2022/11/07 07:05:52;;;;;;;9.60;3.95;;;11.00;99.90;;;;;;4968230;28;20461;-42
2022/11/07 07:08:18;;;;;;;11.85;4.00;;;11.00;99.90;;;;;;4958166;28;20060;-40
2022/11/07 07:10:44;;;;;;;6.47;1.95;;;11.00;99.90;;;;;;4959842;28;20038;-40
2022/11/07 07:13:12;;;;;;;9.38;3.72;;;11.10;99.90;;;;;;4964675;28;20057;-40
2022/11/07 07:15:38;;;;;;;8.90;3.75;;;11.10;99.90;;;;;;4965869;28;20043;-40
2022/11/07 07:18:04;;;;;;;11.05;3.03;;;11.20;99.90;;;;;;4962780;28;20516;-41
2022/11/07 07:20:30;;;;;;;8.00;3.10;;;11.20;99.90;;;;;;4966234;28;20058;-41
2022/11/07 07:22:56;;;;;;;9.23;3.05;;;11.20;99.90;;;;;;4969932;28;20094;-41
2022/11/07 07:25:22;;;;;;;9.82;2.92;;;11.30;99.90;;;;;;4965190;28;20035;-46
2022/11/07 07:27:48;;;;;;;10.00;3.72;;;11.30;99.90;;;;;;4967457;28;20129;-40
2022/11/07 07:30:14;;;;;;;11.05;2.83;;;11.40;99.90;;;;;;4966226;28;20038;-42
2022/11/07 07:32:40;;;;;;;14.77;3.13;;;11.40;99.90;;;;;;4975562;28;20411;-40
2022/11/07 07:35:06;;;;;;;12.27;3.38;;;11.50;99.90;;;;;;4961522;28;20047;-41
2022/11/07 07:37:32;;;;;;;8.10;2.63;;;11.40;99.90;;;;;;4950075;28;20093;-42
2022/11/07 07:39:58;;;;;;;12.15;2.55;;;11.40;99.90;;;;;;4969355;28;20034;-40
2022/11/07 07:42:23;;;;;;;8.00;2.30;;;11.50;99.90;;;;;;4964475;28;20568;-40
2022/11/07 07:44:49;;;;;;;8.02;2.80;;;11.50;99.90;;;;;;4971533;28;20047;-39
2022/11/07 07:47:15;;;;;;;9.07;3.60;;;11.50;99.90;;;;;;4968453;28;20070;-41
2022/11/07 07:49:40;;;;;;;12.38;3.28;;;11.60;99.90;;;;;;4967879;28;20039;-41
2022/11/07 07:52:06;;;;;;;10.07;2.80;;;11.60;99.90;;;;;;4966115;28;20491;-41
2022/11/07 07:54:32;;;;;;;9.15;3.45;;;11.60;99.90;;;;;;4967463;28;20076;-40
2022/11/07 07:56:57;;;;;;;8.13;2.40;;;11.60;99.90;;;;;;4966399;28;20031;-39
2022/11/07 07:59:23;;;;;;;10.93;2.22;;;11.70;99.90;;;;;;4972732;28;20035;-41
2022/11/07 08:01:49;;;;;;;5.78;1.85;;;11.70;99.90;;;;;;4976106;28;20159;-40
2022/11/07 08:04:14;;;;;;;8.15;2.35;;;11.70;99.90;;;;;;4972487;28;20611;-40
2022/11/07 08:06:40;;;;;;;8.77;2.40;;;11.70;99.90;;;;;;4951320;28;20046;-40
2022/11/07 08:09:05;;;;;;;10.10;2.28;;;11.70;99.90;;;;;;4971037;28;20400;-40
2022/11/07 08:11:31;;;;;;;7.95;2.50;;;11.80;99.90;;;;;;4970784;28;20518;-40
2022/11/07 08:13:57;;;;;;;13.30;2.50;;;11.80;99.90;;;;;;4971102;28;20037;-41
2022/11/07 08:16:23;;;;;;;7.70;2.10;;;11.80;99.90;;;;;;4969488;28;20045;-40
2022/11/07 08:18:48;;;;;;;7.82;2.13;;;11.80;99.90;;;;;;4964505;28;20472;-41
2022/11/07 08:21:14;;;;;;;10.27;2.13;;;11.80;99.90;;;;;;4962427;28;20050;-41
2022/11/07 08:23:40;;;;;;;6.90;2.47;;;11.90;99.90;;;;;;4967985;28;20042;-39
2022/11/07 08:26:05;;;;;;;8.27;2.30;;;11.90;99.90;;;;;;4965001;28;20238;-39
2022/11/07 08:28:34;;;;;;;10.13;2.15;;;11.90;99.90;;;;;;4970338;28;20035;-42
2022/11/07 08:31:01;;;;;;;9.48;1.88;;;11.90;99.90;;;;;;4968871;28;20066;-40
2022/11/07 08:33:27;;;;;;;7.38;1.70;;;11.90;99.90;;;;;;4967299;28;20062;-40
2022/11/07 08:35:59;;;;;;;12.63;3.45;;;12.00;99.90;;;;;;4952367;28;20039;-40
2022/11/07 08:38:26;;;;;;;7.03;2.38;;;12.00;99.90;;;;;;4964569;28;20125;-40
2022/11/07 08:40:52;;;;;;;6.68;2.00;;;12.00;99.90;;;;;;4969742;28;20045;-41
2022/11/07 08:43:18;;;;;;;4.60;1.52;;;12.00;99.90;;;;;;4973522;28;20039;-42
2022/11/07 08:45:46;;;;;;;7.65;1.85;;;12.00;99.90;;;;;;4970760;28;20062;-40
2022/11/07 08:48:12;;;;;;;14.98;3.30;;;12.10;99.90;;;;;;4971817;28;20047;-41
2022/11/07 08:50:38;;;;;;;10.07;1.92;;;12.10;99.90;;;;;;4971028;28;20050;-42
2022/11/07 08:53:04;;;;;;;9.25;1.90;;;12.20;99.90;;;;;;4966574;28;20039;-41
2022/11/07 08:55:30;;;;;;;6.93;1.70;;;12.20;99.90;;;;;;4971299;28;20034;-44
2022/11/07 08:58:02;;;;;;;5.07;1.98;;;12.30;99.90;;;;;;4954138;28;20054;-41
2022/11/07 09:00:29;;;;;;;6.15;1.77;;;12.30;99.90;;;;;;4968353;28;20046;-40
2022/11/07 09:02:54;;;;;;;6.97;1.92;;;12.40;99.90;;;;;;4972810;28;20138;-40
2022/11/07 09:05:20;;;;;;;7.95;1.98;;;12.40;99.90;;;;;;4950815;28;20178;-41
2022/11/07 09:07:46;;;;;;;7.32;1.67;;;12.50;99.90;;;;;;4970043;28;20081;-42
2022/11/07 09:10:11;;;;;;;9.15;1.95;;;12.50;99.90;;;;;;4934887;28;20485;-41
2022/11/07 09:12:45;;;;;;;7.53;1.70;;;12.50;99.90;;;;;;4965924;28;20042;-41
2022/11/07 09:15:11;;;;;;;7.35;1.92;;;12.60;99.90;;;;;;4970680;28;20071;-41
2022/11/07 09:17:36;;;;;;;8.75;2.40;;;12.60;99.90;;;;;;4966742;28;20563;-40
2022/11/07 09:20:03;;;;;;;5.15;1.55;;;12.70;99.90;;;;;;4972823;28;20039;-40
2022/11/07 09:22:29;;;;;;;6.78;2.17;;;12.70;99.90;;;;;;4970063;28;20117;-41
2022/11/07 09:24:54;;;;;;;6.30;1.63;;;12.70;99.90;;;;;;4967004;28;20110;-40
2022/11/07 09:27:20;;;;;;;10.02;2.15;;;12.80;99.90;;;;;;4966669;28;20076;-40
2022/11/07 09:29:45;;;;;;;7.93;2.20;;;12.70;99.90;;;;;;4969948;28;20503;-40
2022/11/07 09:32:11;;;;;;;5.15;1.98;;;12.60;99.90;;;;;;4971687;28;20023;-41
2022/11/07 09:34:37;;;;;;;6.75;2.10;;;12.60;99.90;;;;;;4968034;28;20042;-41
2022/11/07 09:37:02;;;;;;;6.60;2.35;;;12.50;99.90;;;;;;4973804;28;20039;-41
2022/11/07 09:39:28;;;;;;;7.60;2.53;;;12.50;99.90;;;;;;4970777;28;20408;-40
2022/11/07 09:42:21;;;;;;;6.18;1.88;;;12.60;99.90;;;;;;4972631;28;20620;-40
2022/11/07 09:44:52;;;;;;;;;;;12.60;99.90;;;;;;4968188;28;20179;-40
2022/11/07 09:47:30;;;;;;;6.68;2.40;;;12.60;99.90;;;;;;4968058;28;20057;-39
2022/11/07 09:50:00;;;;;;;7.05;2.28;;;12.70;99.90;;;;;;4967406;28;20420;-42
2022/11/07 09:53:00;;;;;;;9.25;2.17;;;12.80;99.90;;;;;;4966348;28;20346;-40
2022/11/07 09:55:40;;;;;;;9.13;2.28;;;12.80;99.90;;;;;;4966910;28;20043;-40
2022/11/07 09:58:41;;;;;;;8.95;2.20;;;12.90;99.90;;;;;;4970345;28;20046;-40
2022/11/07 10:01:16;;;;;;;5.35;1.27;;;13.00;99.90;;;;;;4925913;28;20078;-41
2022/11/07 10:03:42;;;;;;;8.15;1.48;;;13.00;99.90;;;;;;4969373;28;20149;-39
2022/11/07 10:06:28;;;;;;;6.00;1.67;;;13.10;99.90;;;;;;4971806;28;20054;-40
2022/11/07 10:09:30;;;;;;;6.60;1.90;;;13.20;99.90;;;;;;4952862;28;20043;-39
2022/11/07 10:12:10;;;;;;;5.43;1.65;;;13.30;99.90;;;;;;4966910;28;20043;-39
2022/11/07 10:14:45;;;;;;;7.85;2.20;;;13.30;99.90;;;;;;4969877;28;20051;-41
2022/11/07 10:17:32;;;;;;;5.68;1.95;;;13.40;99.90;;;;;;4965428;28;20094;-40
2022/11/07 10:20:30;;;;;;;6.85;1.95;;;13.40;99.90;;;;;;4947847;28;20034;-43
2022/11/07 10:23:10;;;;;;;11.02;2.10;;;13.40;99.90;;;;;;4963212;28;20051;-43
2022/11/07 10:25:44;;;;;;;8.68;2.55;;;13.50;99.90;;;;;;4969573;28;20039;-41
2022/11/07 10:28:14;;;;;;;5.43;1.80;;;13.60;99.90;;;;;;4972394;28;20562;-41
2022/11/07 10:30:47;;;;;;;6.30;1.95;;;13.70;99.90;;;;;;4968950;28;20048;-41
2022/11/07 10:33:26;;;;;;;9.57;2.15;;;13.80;99.90;;;;;;4946651;28;20086;-42
2022/11/07 10:35:56;;;;;;;7.05;1.85;;;13.80;99.90;;;;;;4971426;28;20042;-41
2022/11/07 10:38:25;;;;;;;5.40;1.45;;;13.80;99.90;;;;;;4964758;28;20162;-40
2022/11/07 10:40:52;;;;;;;9.43;2.47;;;13.80;99.90;;;;;;4967921;28;20046;-40
2022/11/07 10:43:38;;;;;;;7.82;1.80;;;13.80;99.90;;;;;;4971015;28;20046;-38
2022/11/07 10:46:18;;;;;;;4.40;1.38;;;13.80;99.90;;;;;;4964800;28;20074;-38
2022/11/07 10:48:53;;;;;;;7.43;1.50;;;13.90;99.90;;;;;;4949308;28;20054;-38
2022/11/07 10:51:18;;;;;;;5.95;1.70;;;13.90;99.90;;;;;;4970960;28;20042;-38
2022/11/07 10:53:44;;;;;;;10.30;2.42;;;13.90;99.90;;;;;;4967068;28;20448;-39
2022/11/07 10:56:12;;;;;;;7.40;1.48;;;13.90;99.90;;;;;;4969360;28;20057;-38
2022/11/07 10:58:44;;;;;;;9.65;1.63;;;14.00;99.90;;;;;;4968903;28;20548;-39
2022/11/07 11:01:10;;;;;;;5.72;1.60;;;14.00;99.90;;;;;;4963071;28;20109;-39
2022/11/07 11:03:42;;;;;;;5.10;1.52;;;14.20;99.90;;;;;;4968541;28;20047;-39
2022/11/07 11:06:17;;;;;;;9.73;1.58;;;14.30;99.90;;;;;;4950551;28;20243;-38
2022/11/07 11:08:45;;;;;;;11.05;1.70;;;14.60;99.90;;;;;;4956753;28;20120;-39
2022/11/07 11:11:13;;;;;;;4.70;1.52;;;14.60;99.90;;;;;;4965810;28;20046;-39
2022/11/07 11:13:39;;;;;;;5.55;1.30;;;14.60;99.90;;;;;;4965937;28;20047;-39
2022/11/07 11:16:28;;;;;;;8.65;2.75;;;14.50;99.90;;;;;;4967695;28;20090;-38
2022/11/07 11:18:58;;;;;;;11.40;1.52;;;14.40;99.90;;;;;;4952200;28;20039;-38
2022/11/07 11:21:25;;;;;;;5.95;1.63;;;14.30;99.90;;;;;;4963309;28;20042;-38
2022/11/07 11:23:53;;;;;;;8.57;1.58;;;14.40;99.90;;;;;;4962449;28;20043;-39
2022/11/07 11:26:30;;;;;;;5.93;1.75;;;14.40;99.90;;;;;;4969780;28;20046;-39
2022/11/07 11:29:05;;;;;;;8.25;1.75;;;14.40;99.90;;;;;;4967139;28;20074;-38
2022/11/07 11:31:49;;;;;;;7.53;2.15;;;14.40;99.90;;;;;;4969475;28;20122;-38
2022/11/07 11:34:20;;;;;;;9.45;1.83;;;14.40;99.90;;;;;;4966090;28;20082;-38
2022/11/07 11:37:07;;;;;;;9.15;1.80;;;14.40;99.90;;;;;;4968736;28;20460;-38
2022/11/07 11:39:47;;;;;;;6.85;1.85;;;14.40;99.90;;;;;;4952033;28;20046;-39
2022/11/07 11:42:44;;;;;;;9.20;2.08;;;14.40;99.90;;;;;;4968381;28;20062;-38
2022/11/07 11:45:18;;;;;;;6.38;1.58;;;14.40;99.90;;;;;;4966828;28;20531;-38
2022/11/07 11:48:13;;;;;;;4.35;1.48;;;14.40;99.90;;;;;;4959499;28;20049;-39
2022/11/07 11:50:48;;;;;;;5.18;1.50;;;14.40;99.90;;;;;;4959945;28;20883;-39
2022/11/07 11:53:20;;;;;;;8.90;1.75;;;14.30;99.90;;;;;;4942842;28;20546;-39
2022/11/07 11:56:07;;;;;;;5.13;1.40;;;14.30;99.90;;;;;;4962836;28;20046;-39
2022/11/07 11:58:39;;;;;;;6.00;1.98;;;14.30;99.90;;;;;;4966081;28;20065;-38
2022/11/07 12:01:29;;;;;;;6.15;1.90;;;14.20;99.90;;;;;;4966517;28;20058;-38
2022/11/07 12:04:45;;;;;;;5.88;1.50;;;14.20;99.90;;;;;;4968683;28;20042;-38
2022/11/07 12:07:38;;;;;;;7.55;1.50;;;14.10;99.90;;;;;;4951570;28;20053;-38
2022/11/07 12:10:16;;;;;;;7.38;2.13;;;14.00;99.90;;;;;;4970724;28;20049;-38
2022/11/07 12:13:08;;;;;;;8.48;1.80;;;14.00;99.90;;;;;;4977594;28;20524;-39
2022/11/07 12:15:39;;;;;;;5.07;1.70;;;14.00;99.90;;;;;;4965616;28;20043;-38
2022/11/07 12:18:32;;;;;;;9.38;1.73;;;14.00;99.90;;;;;;4970157;28;20133;-38
2022/11/07 12:21:21;;;;;;;6.00;1.80;;;14.00;99.90;;;;;;4958970;28;20526;-39
2022/11/07 12:24:15;;;;;;;5.50;1.50;;;14.00;99.90;;;;;;4970049;28;20129;-38
2022/11/07 12:26:43;;;;;;;8.23;1.98;;;14.10;99.90;;;;;;4969161;28;20052;-39
2022/11/07 12:29:31;;;;;;;9.32;1.83;;;14.20;99.90;;;;;;4968116;28;20066;-38
2022/11/07 12:32:05;;;;;;;12.48;2.10;;;14.30;99.90;;;;;;4969302;28;20140;-38
2022/11/07 12:34:57;;;;;;;11.45;2.00;;;14.30;99.90;;;;;;4968613;28;20464;-39
2022/11/07 12:37:42;;;;;;;10.37;2.53;;;14.30;99.90;;;;;;4957278;28;20050;-38
2022/11/07 12:40:10;;;;;;;9.07;1.50;;;14.30;99.90;;;;;;4971548;28;20034;-38
2022/11/07 12:43:01;;;;;;;6.43;1.80;;;14.20;99.90;;;;;;4965155;28;20460;-38
2022/11/07 12:45:44;;;;;;;14.98;2.63;;;14.20;99.90;;;;;;4966963;28;20142;-38
2022/11/07 12:48:14;;;;;;;8.88;2.13;;;14.10;99.90;;;;;;4965936;28;20926;-38
2022/11/07 12:50:45;;;;;;;6.68;1.98;;;14.00;99.90;;;;;;4977398;28;20050;-38
2022/11/07 12:53:26;;;;;;;8.30;1.90;;;14.00;99.90;;;;;;4967188;28;20043;-40
2022/11/07 12:56:11;;;;;;;8.93;2.30;;;14.00;99.90;;;;;;4963116;28;20772;-38
2022/11/07 12:58:39;;;;;;;7.43;2.00;;;14.00;99.90;;;;;;4972152;28;20046;-37
2022/11/07 13:01:06;;;;;;;8.10;1.70;;;14.00;99.90;;;;;;4971743;28;20094;-40
2022/11/07 13:03:50;;;;;;;6.72;2.20;;;14.00;99.90;;;;;;4969582;28;20137;-38
2022/11/07 13:06:53;;;;;;;6.97;1.88;;;14.00;99.90;;;;;;4970709;28;20049;-38
2022/11/07 13:09:37;;;;;;;12.38;2.10;;;14.00;99.90;;;;;;4965761;28;20536;-39
2022/11/07 13:12:21;;;;;;;8.50;1.95;;;14.10;99.90;;;;;;4969923;28;20042;-39
2022/11/07 13:14:48;;;;;;;7.95;2.15;;;14.00;99.90;;;;;;4969367;28;20043;-39
2022/11/07 13:17:19;;;;;;;8.05;2.08;;;14.00;99.90;;;;;;4973801;28;20077;-38